< < Back
Terminal Aerodrome Forecast


Current Version              Previous Versions:   1  2  3  4  5  6  7  8  9  

Terminal Aerodrome Forecast

108
FTUS42 KJAX 250542
TAFGNV
TAF
KGNV 250542Z 2506/2606 VRB03KT P6SM FEW050
     FM251600 12008KT P6SM SCT050 SCT250
     FM252000 13007KT P6SM VCTS SCT050CB
     FM260200 VRB03KT P6SM FEW250=



Latest METAR

419
SAUS70 KWBC 251500 RRD
MTRGNV
METAR KGNV 251453Z 13006KT 10SM CLR 29/22 A3009 RMK AO2 SLP187 T02940222
50006


USA.gov is the U.S. government's official web portal to all federal, state and local government web resources and services.